Time;durP1;ratioP1;P1;durP2;ratioP2;P2;SDS_P1;SDS_P2;PMS_P1;PMS_P2;Temp;Humidity;BMP_temperature;BMP_pressure;BME280_temperature;BME280_humidity;BME280_pressure;Samples;Min_cycle;Max_cycle;Signal;HPM_P1;HPM_P2
2021/08/20 00:00:32;;;;;;;5.23;4.73;;;18.10;1.00;;;;;;5025488;28;20233;-58
2021/08/20 00:02:57;;;;;;;5.13;4.73;;;18.10;1.00;;;;;;5028696;28;20181;-59
2021/08/20 00:05:23;;;;;;;5.47;5.00;;;18.20;1.00;;;;;;5027617;28;20233;-59
2021/08/20 00:07:49;;;;;;;4.60;4.30;;;18.10;1.00;;;;;;5028411;28;20199;-60
2021/08/20 00:10:15;;;;;;;5.43;4.93;;;18.10;1.00;;;;;;5028514;28;21222;-59
2021/08/20 00:12:41;;;;;;;5.10;4.70;;;18.10;1.00;;;;;;5026795;28;20205;-59
2021/08/20 00:15:07;;;;;;;4.70;4.30;;;18.10;1.00;;;;;;5028158;28;20478;-60
2021/08/20 00:17:33;;;;;;;4.90;4.50;;;18.10;1.00;;;;;;5029180;28;20188;-59
2021/08/20 00:19:58;;;;;;;5.20;4.80;;;18.10;1.00;;;;;;5024853;28;20947;-60
2021/08/20 00:22:24;;;;;;;5.13;4.63;;;18.10;1.00;;;;;;5028323;28;20656;-59
2021/08/20 00:24:50;;;;;;;4.30;4.00;;;18.10;1.00;;;;;;5027255;28;20234;-59
2021/08/20 00:27:16;;;;;;;4.73;4.40;;;18.10;1.00;;;;;;5028500;28;20249;-58
2021/08/20 00:29:41;;;;;;;4.40;4.10;;;18.10;1.00;;;;;;5026439;28;20818;-59
2021/08/20 00:32:07;;;;;;;5.17;4.77;;;18.20;1.00;;;;;;5028121;28;20610;-60
2021/08/20 00:34:33;;;;;;;4.33;4.03;;;18.10;1.00;;;;;;5026984;28;20187;-60
2021/08/20 00:36:58;;;;;;;5.00;4.60;;;18.20;1.00;;;;;;5028675;28;20590;-59
2021/08/20 00:39:24;;;;;;;5.07;4.57;;;18.20;1.00;;;;;;5027446;28;20518;-60
2021/08/20 00:41:50;;;;;;;5.17;4.77;;;18.20;1.00;;;;;;5028405;28;20202;-59
2021/08/20 00:44:17;;;;;;;5.40;5.00;;;18.20;1.00;;;;;;5027977;28;20443;-59
2021/08/20 00:46:43;;;;;;;4.77;4.40;;;18.20;1.00;;;;;;5014467;28;20613;-59
2021/08/20 00:49:10;;;;;;;5.20;4.70;;;18.30;1.00;;;;;;5025449;28;20524;-59
2021/08/20 00:51:37;;;;;;;5.90;4.83;;;18.20;1.00;;;;;;5027639;28;20328;-60
2021/08/20 00:54:08;;;;;;;4.63;4.33;;;18.20;1.00;;;;;;5027359;28;20430;-59
2021/08/20 00:56:35;;;;;;;5.50;5.10;;;18.30;1.00;;;;;;5030466;28;20923;-59
2021/08/20 00:59:01;;;;;;;4.57;4.27;;;18.20;1.00;;;;;;5031645;28;20471;-58
2021/08/20 01:01:27;;;;;;;4.60;4.30;;;18.20;1.00;;;;;;5031539;28;20835;-59
2021/08/20 01:03:52;;;;;;;5.30;4.90;;;18.20;1.00;;;;;;5029902;28;20440;-59
2021/08/20 01:06:18;;;;;;;4.70;4.30;;;18.20;1.00;;;;;;5032259;28;20182;-59
2021/08/20 01:08:43;;;;;;;5.13;4.73;;;18.20;1.00;;;;;;5030749;28;20198;-59
2021/08/20 01:11:11;;;;;;;4.90;4.50;;;18.20;1.00;;;;;;5031976;28;20207;-58
2021/08/20 01:13:40;;;;;;;4.57;4.17;;;18.20;1.00;;;;;;5029385;28;20678;-60
2021/08/20 01:16:06;;;;;;;5.40;5.00;;;18.10;1.00;;;;;;5029726;28;20880;-58
2021/08/20 01:18:37;;;;;;;5.37;4.97;;;18.20;1.00;;;;;;5030363;28;20432;-59
2021/08/20 01:21:08;;;;;;;5.20;4.80;;;18.10;1.00;;;;;;5031472;28;20508;-60
2021/08/20 01:23:35;;;;;;;5.07;4.60;;;18.10;1.00;;;;;;5022306;28;20475;-59
2021/08/20 01:26:01;;;;;;;5.57;5.07;;;18.00;1.00;;;;;;5031530;28;20504;-59
2021/08/20 01:28:27;;;;;;;5.53;5.13;;;18.00;1.00;;;;;;5030020;28;20437;-59
2021/08/20 01:31:00;;;;;;;5.37;4.97;;;18.10;1.00;;;;;;5030274;28;20558;-59
2021/08/20 01:33:26;;;;;;;5.47;5.00;;;18.10;1.00;;;;;;5027489;28;20429;-60
2021/08/20 01:35:51;;;;;;;5.57;5.07;;;18.10;1.00;;;;;;5030191;28;20973;-59
2021/08/20 01:38:17;;;;;;;5.00;4.57;;;18.10;1.00;;;;;;5031103;28;20206;-60
2021/08/20 01:40:42;;;;;;;4.97;4.47;;;18.10;1.00;;;;;;5030814;28;20645;-60
2021/08/20 01:43:08;;;;;;;5.40;4.90;;;18.20;1.00;;;;;;5041054;28;20661;-60
2021/08/20 01:45:34;;;;;;;5.20;4.80;;;18.20;1.00;;;;;;5030748;28;20177;-60
2021/08/20 01:47:59;;;;;;;4.87;4.57;;;18.20;1.00;;;;;;5031434;28;20903;-59
2021/08/20 01:50:25;;;;;;;5.10;4.70;;;18.20;1.00;;;;;;5031943;28;20194;-60
2021/08/20 01:52:50;;;;;;;5.50;5.10;;;18.20;1.00;;;;;;5032083;28;20213;-60
2021/08/20 01:55:16;;;;;;;5.37;4.90;;;18.10;1.00;;;;;;5030107;28;20591;-60
2021/08/20 01:57:42;;;;;;;5.33;4.87;;;18.10;1.00;;;;;;5029014;28;20282;-60
2021/08/20 02:00:09;;;;;;;5.50;5.10;;;18.10;1.00;;;;;;5032709;28;20297;-60
2021/08/20 02:02:34;;;;;;;5.18;4.68;;;18.10;1.00;;;;;;5032976;28;20425;-59
2021/08/20 02:05:00;;;;;;;5.23;4.83;;;18.20;1.00;;;;;;5029616;28;20298;-60
2021/08/20 02:07:25;;;;;;;5.30;4.90;;;18.20;1.00;;;;;;5031754;28;20189;-58
2021/08/20 02:09:51;;;;;;;5.30;4.90;;;18.20;1.00;;;;;;5031723;28;20564;-60
2021/08/20 02:12:16;;;;;;;5.13;4.67;;;18.30;1.00;;;;;;5030980;28;20300;-60
2021/08/20 02:14:42;;;;;;;5.37;4.97;;;18.30;1.00;;;;;;5028517;28;20190;-53
2021/08/20 02:17:08;;;;;;;4.97;4.57;;;18.30;1.00;;;;;;5032600;28;20579;-59
2021/08/20 02:19:34;;;;;;;4.93;4.53;;;18.20;1.00;;;;;;5029422;28;20187;-59
2021/08/20 02:22:00;;;;;;;4.70;4.30;;;18.30;1.00;;;;;;5030895;28;20193;-59
2021/08/20 02:24:26;;;;;;;4.77;4.47;;;18.30;1.00;;;;;;5030871;28;20445;-59
2021/08/20 02:26:52;;;;;;;5.07;4.67;;;18.30;1.00;;;;;;5029657;28;20789;-59
2021/08/20 02:29:17;;;;;;;4.97;4.57;;;18.30;1.00;;;;;;5030834;28;20180;-59
2021/08/20 02:31:43;;;;;;;5.23;4.83;;;18.30;1.00;;;;;;5029411;28;20464;-59
2021/08/20 02:34:08;;;;;;;5.97;5.50;;;18.30;1.00;;;;;;5031334;28;20187;-59
2021/08/20 02:36:34;;;;;;;5.57;5.00;;;18.30;1.00;;;;;;5031004;28;20214;-59
2021/08/20 02:38:59;;;;;;;5.23;4.83;;;18.20;1.00;;;;;;5031546;28;20183;-60
2021/08/20 02:41:25;;;;;;;5.30;4.90;;;18.20;1.00;;;;;;5029619;28;20185;-53
2021/08/20 02:43:51;;;;;;;5.83;5.33;;;18.20;1.00;;;;;;5029657;28;20803;-60
2021/08/20 02:46:17;;;;;;;5.50;5.10;;;18.20;1.00;;;;;;5028796;28;20183;-59
2021/08/20 02:48:42;;;;;;;6.23;5.73;;;18.20;1.00;;;;;;5029540;28;20441;-59
2021/08/20 02:51:09;;;;;;;5.67;5.17;;;18.20;1.00;;;;;;5028364;28;20296;-60
2021/08/20 02:53:35;;;;;;;5.23;4.83;;;18.30;1.00;;;;;;5028439;28;20181;-54
2021/08/20 02:56:02;;;;;;;6.20;4.70;;;18.20;1.00;;;;;;5028375;28;20442;-58
2021/08/20 02:58:27;;;;;;;5.10;4.70;;;18.20;1.00;;;;;;5029261;28;20426;-59
2021/08/20 03:00:53;;;;;;;4.97;4.60;;;18.10;1.00;;;;;;5028518;28;20974;-58
2021/08/20 03:03:19;;;;;;;5.30;4.90;;;18.10;1.00;;;;;;5030042;28;20189;-59
2021/08/20 03:05:44;;;;;;;5.10;4.70;;;18.10;1.00;;;;;;5028044;28;20210;-60
2021/08/20 03:08:10;;;;;;;5.13;4.73;;;18.10;1.00;;;;;;5029442;28;20994;-59
2021/08/20 03:10:36;;;;;;;5.37;4.90;;;18.10;1.00;;;;;;5027346;28;20221;-61
2021/08/20 03:13:02;;;;;;;6.10;5.60;;;18.10;3.70;;;;;;5028491;28;20181;-60
2021/08/20 03:15:28;;;;;;;5.57;5.07;;;18.00;8.70;;;;;;5027682;28;20503;-59
2021/08/20 03:17:53;;;;;;;5.73;5.23;;;18.00;11.10;;;;;;5028966;28;20297;-58
2021/08/20 03:20:19;;;;;;;5.83;5.33;;;18.00;9.50;;;;;;5026857;28;20446;-58
2021/08/20 03:22:44;;;;;;;5.30;4.90;;;18.00;10.40;;;;;;5027971;28;20263;-59
2021/08/20 03:25:10;;;;;;;5.63;5.13;;;18.00;13.10;;;;;;5027809;28;20701;-59
2021/08/20 03:27:36;;;;;;;5.90;5.30;;;17.90;13.70;;;;;;5028499;28;20227;-59
2021/08/20 03:30:02;;;;;;;5.27;4.87;;;17.90;14.10;;;;;;5028838;28;20466;-57
2021/08/20 03:32:28;;;;;;;5.83;5.33;;;17.90;17.30;;;;;;5026263;28;20308;-59
2021/08/20 03:34:54;;;;;;;5.43;5.03;;;17.80;23.20;;;;;;5028331;28;20437;-60
2021/08/20 03:37:21;;;;;;;5.53;4.97;;;17.70;29.00;;;;;;5028166;28;20171;-56
2021/08/20 03:39:46;;;;;;;5.53;5.03;;;17.70;30.00;;;;;;5028147;28;20539;-59
2021/08/20 03:42:12;;;;;;;5.27;4.87;;;17.70;28.50;;;;;;5026219;28;20529;-58
2021/08/20 03:44:37;;;;;;;5.40;4.90;;;17.80;27.20;;;;;;5027707;28;20632;-59
2021/08/20 03:47:03;;;;;;;6.03;5.40;;;17.80;26.80;;;;;;5027285;28;20192;-59
2021/08/20 03:49:29;;;;;;;5.27;4.87;;;17.80;26.40;;;;;;5027259;28;20189;-59
2021/08/20 03:51:55;;;;;;;5.67;5.17;;;17.80;26.70;;;;;;5029759;28;20826;-60
2021/08/20 03:54:20;;;;;;;5.80;5.20;;;17.90;24.30;;;;;;5027006;28;20192;-59
2021/08/20 03:56:46;;;;;;;5.20;4.80;;;17.80;28.10;;;;;;5025269;28;20185;-59
2021/08/20 03:59:12;;;;;;;5.07;4.67;;;17.80;31.70;;;;;;5026548;28;20250;-60
2021/08/20 04:01:37;;;;;;;5.10;4.60;;;17.80;28.60;;;;;;5026648;28;20720;-59
2021/08/20 04:04:03;;;;;;;5.50;5.00;;;17.80;29.20;;;;;;5023744;28;20198;-61
2021/08/20 04:06:28;;;;;;;5.80;5.30;;;17.80;30.50;;;;;;5025014;28;20180;-55
2021/08/20 04:08:54;;;;;;;5.70;5.20;;;17.80;30.70;;;;;;5026205;28;20198;-59
2021/08/20 04:11:19;;;;;;;6.23;5.63;;;17.80;29.90;;;;;;5018247;28;20218;-59
2021/08/20 04:13:45;;;;;;;6.00;5.50;;;17.80;35.80;;;;;;5018805;28;20198;-60
2021/08/20 04:16:10;;;;;;;5.60;5.10;;;17.70;36.90;;;;;;5016838;28;20185;-59
2021/08/20 04:18:40;;;;;;;5.40;5.00;;;17.80;32.00;;;;;;5015773;28;20187;-59
2021/08/20 04:21:06;;;;;;;5.77;5.27;;;17.80;26.70;;;;;;5015056;28;20213;-59
2021/08/20 04:23:31;;;;;;;5.40;4.93;;;17.80;24.00;;;;;;5018194;28;21197;-58
2021/08/20 04:25:57;;;;;;;5.87;5.40;;;17.70;29.70;;;;;;5012682;28;20443;-59
2021/08/20 04:28:22;;;;;;;6.20;5.70;;;17.80;31.50;;;;;;5016508;28;20546;-59
2021/08/20 04:30:48;;;;;;;6.47;5.87;;;17.80;28.80;;;;;;5018230;28;20718;-58
2021/08/20 04:33:13;;;;;;;6.17;5.67;;;17.80;23.80;;;;;;5019078;28;20598;-59
2021/08/20 04:35:39;;;;;;;5.63;5.23;;;17.80;25.10;;;;;;5019733;28;20189;-60
2021/08/20 04:38:05;;;;;;;5.00;4.60;;;17.80;24.50;;;;;;5021534;28;20239;-58
2021/08/20 04:40:31;;;;;;;6.43;5.67;;;17.90;26.70;;;;;;5029698;28;20207;-59
2021/08/20 04:42:57;;;;;;;5.57;5.17;;;18.00;24.80;;;;;;5031571;28;20515;-60
2021/08/20 04:45:22;;;;;;;6.70;5.33;;;18.00;22.40;;;;;;5029486;28;20179;-58
2021/08/20 04:47:49;;;;;;;5.90;5.30;;;18.00;22.00;;;;;;5032620;28;20514;-59
2021/08/20 04:50:15;;;;;;;5.83;5.30;;;18.00;19.80;;;;;;5031866;28;20186;-59
2021/08/20 04:52:41;;;;;;;5.53;5.03;;;18.10;21.80;;;;;;5031859;28;20919;-60
2021/08/20 04:55:07;;;;;;;5.50;5.10;;;18.10;19.20;;;;;;5029901;28;20185;-59
2021/08/20 04:57:33;;;;;;;5.47;4.97;;;18.20;18.50;;;;;;5031798;28;20885;-60
2021/08/20 04:59:59;;;;;;;6.00;5.50;;;18.10;16.00;;;;;;5030583;28;20416;-59
2021/08/20 05:02:27;;;;;;;5.23;4.83;;;18.20;15.10;;;;;;5029111;28;20187;-59
2021/08/20 05:04:52;;;;;;;5.50;5.10;;;18.30;13.20;;;;;;5030724;28;20186;-59
2021/08/20 05:07:18;;;;;;;5.40;4.90;;;18.30;10.00;;;;;;5030270;28;20940;-59
2021/08/20 05:09:44;;;;;;;6.30;5.77;;;18.40;7.50;;;;;;5031175;28;20190;-60
2021/08/20 05:12:10;;;;;;;5.20;4.80;;;18.50;3.10;;;;;;5029339;28;20212;-59
2021/08/20 05:14:35;;;;;;;5.63;5.13;;;18.50;1.00;;;;;;5029474;28;20193;-61
2021/08/20 05:17:01;;;;;;;5.53;5.03;;;18.50;1.30;;;;;;5030732;28;20351;-59
2021/08/20 05:19:26;;;;;;;6.07;5.57;;;18.40;1.00;;;;;;5031289;28;20203;-58
2021/08/20 05:21:52;;;;;;;5.30;4.90;;;18.40;2.60;;;;;;5031821;28;20520;-60
2021/08/20 05:24:17;;;;;;;5.93;5.43;;;18.40;1.00;;;;;;5031405;28;20269;-60
2021/08/20 05:26:44;;;;;;;5.20;4.80;;;18.40;1.00;;;;;;5031429;28;20183;-60
2021/08/20 05:29:09;;;;;;;5.30;4.90;;;18.50;1.00;;;;;;5031269;28;20189;-59
2021/08/20 05:31:35;;;;;;;6.10;5.57;;;18.50;1.00;;;;;;5031616;28;21072;-60
2021/08/20 05:34:01;;;;;;;5.07;4.57;;;18.60;1.00;;;;;;5029483;28;20186;-51
2021/08/20 05:36:27;;;;;;;5.10;4.70;;;18.60;1.00;;;;;;5031598;28;20182;-59
2021/08/20 05:38:53;;;;;;;5.83;5.27;;;18.70;1.00;;;;;;5031589;28;20187;-60
2021/08/20 05:41:18;;;;;;;4.90;4.50;;;18.80;1.00;;;;;;5030848;28;20775;-60
2021/08/20 05:43:44;;;;;;;5.53;4.50;;;18.80;1.00;;;;;;5024146;28;20183;-59
2021/08/20 05:46:09;;;;;;;5.27;4.87;;;18.80;1.00;;;;;;5030647;28;20180;-59
2021/08/20 05:48:35;;;;;;;5.73;5.23;;;18.80;1.00;;;;;;5031233;28;20325;-59
2021/08/20 05:51:01;;;;;;;5.70;5.20;;;18.80;1.00;;;;;;5029344;28;20916;-54
2021/08/20 05:53:26;;;;;;;5.60;5.20;;;18.80;1.00;;;;;;5031394;28;20417;-59
2021/08/20 05:55:52;;;;;;;5.10;4.50;;;18.80;1.00;;;;;;5031745;28;20187;-59
2021/08/20 05:58:17;;;;;;;5.27;4.87;;;18.80;1.00;;;;;;5030362;28;20183;-56
2021/08/20 06:00:43;;;;;;;5.13;4.73;;;18.80;1.00;;;;;;5031032;28;20685;-60
2021/08/20 06:03:09;;;;;;;5.17;4.77;;;18.90;1.00;;;;;;5029301;28;20182;-61
2021/08/20 06:05:34;;;;;;;5.10;4.70;;;18.90;1.00;;;;;;5030983;28;20273;-60
2021/08/20 06:08:01;;;;;;;5.30;4.90;;;18.90;1.00;;;;;;5031179;28;20194;-58
2021/08/20 06:10:27;;;;;;;5.03;4.63;;;19.00;1.00;;;;;;5030631;28;20265;-60
2021/08/20 06:12:52;;;;;;;5.70;5.20;;;19.10;1.00;;;;;;5030714;28;20499;-59
2021/08/20 06:15:18;;;;;;;5.37;4.93;;;19.10;1.00;;;;;;5030395;28;20907;-59
2021/08/20 06:17:43;;;;;;;5.90;5.40;;;19.10;1.00;;;;;;5030417;28;20186;-58
2021/08/20 06:20:10;;;;;;;5.43;4.93;;;19.20;1.00;;;;;;5030435;28;20585;-58
2021/08/20 06:22:36;;;;;;;5.93;5.43;;;19.20;1.00;;;;;;5029766;28;20227;-59
2021/08/20 06:25:02;;;;;;;5.50;5.00;;;19.30;1.00;;;;;;5030803;28;20441;-60
2021/08/20 06:27:27;;;;;;;4.80;4.40;;;19.40;1.00;;;;;;5029143;28;20198;-59
2021/08/20 06:29:53;;;;;;;5.27;4.87;;;19.50;1.00;;;;;;5030068;28;20553;-61
2021/08/20 06:32:18;;;;;;;4.50;4.20;;;19.60;1.00;;;;;;5029942;28;20277;-60
2021/08/20 06:34:44;;;;;;;5.57;5.10;;;19.60;1.00;;;;;;5030360;28;20317;-59
2021/08/20 06:37:09;;;;;;;5.40;5.00;;;19.70;1.00;;;;;;5029256;28;20186;-58
2021/08/20 06:39:35;;;;;;;4.83;4.43;;;19.70;1.00;;;;;;5030306;28;20253;-58
2021/08/20 06:42:00;;;;;;;5.30;4.80;;;19.90;1.00;;;;;;5030457;28;20289;-59
2021/08/20 06:44:27;;;;;;;6.00;5.40;;;20.10;1.00;;;;;;5029774;28;20273;-59
2021/08/20 06:46:53;;;;;;;8.20;7.40;;;20.20;1.00;;;;;;5028866;28;20198;-58
2021/08/20 06:49:18;;;;;;;8.40;7.60;;;20.30;1.00;;;;;;5030409;28;20422;-59
2021/08/20 06:51:44;;;;;;;7.40;6.70;;;20.50;1.00;;;;;;5029289;28;20462;-59
2021/08/20 06:54:10;;;;;;;8.50;7.80;;;20.30;1.00;;;;;;5029665;28;20350;-59
2021/08/20 06:56:35;;;;;;;6.30;5.70;;;20.40;1.00;;;;;;5029311;28;20183;-59
2021/08/20 06:59:01;;;;;;;6.27;5.53;;;20.50;1.00;;;;;;5029095;28;20265;-59
2021/08/20 07:01:27;;;;;;;5.30;4.80;;;20.50;1.00;;;;;;5029682;28;20819;-59
2021/08/20 07:03:54;;;;;;;6.40;5.80;;;20.60;1.00;;;;;;5029529;28;20198;-62
2021/08/20 07:06:20;;;;;;;5.47;5.07;;;20.60;1.00;;;;;;5022986;28;20441;-55
2021/08/20 07:08:47;;;;;;;5.30;4.90;;;20.60;1.00;;;;;;5029964;28;20589;-58
2021/08/20 07:11:13;;;;;;;5.20;4.80;;;20.70;1.00;;;;;;5028061;28;20466;-55
2021/08/20 07:13:39;;;;;;;5.47;5.07;;;20.80;1.00;;;;;;5029838;28;20418;-58
2021/08/20 07:16:04;;;;;;;5.07;4.67;;;20.80;1.00;;;;;;5029080;28;20434;-59
2021/08/20 07:18:30;;;;;;;5.00;4.50;;;20.70;1.00;;;;;;5029659;28;20548;-58
2021/08/20 07:20:56;;;;;;;5.67;5.17;;;20.80;1.00;;;;;;5029613;28;20192;-59
2021/08/20 07:23:21;;;;;;;5.33;4.67;;;20.90;1.00;;;;;;5029965;28;20225;-60
2021/08/20 07:25:47;;;;;;;6.70;5.27;;;20.90;1.00;;;;;;5028357;28;20175;-60
2021/08/20 07:28:12;;;;;;;5.37;4.97;;;21.00;1.00;;;;;;5029650;28;20171;-60
2021/08/20 07:30:38;;;;;;;5.57;5.07;;;21.10;1.00;;;;;;5028051;28;20637;-59
2021/08/20 07:33:03;;;;;;;5.00;4.60;;;21.10;1.00;;;;;;5027823;28;20210;-60
2021/08/20 07:35:29;;;;;;;5.40;5.00;;;21.00;99.90;;;;;;5029465;28;20186;-59
2021/08/20 07:37:54;;;;;;;4.97;4.57;;;21.10;99.90;;;;;;5029217;28;20199;-55
2021/08/20 07:40:20;;;;;;;5.00;4.53;;;21.10;1.00;;;;;;5027988;28;20190;-59
2021/08/20 07:42:46;;;;;;;4.77;4.37;;;21.20;99.90;;;;;;5029091;28;20190;-59
2021/08/20 07:45:11;;;;;;;4.90;4.50;;;21.10;99.90;;;;;;5031099;28;20202;-60
2021/08/20 07:47:44;;;;;;;5.33;4.93;;;21.00;99.90;;;;;;5030511;28;20257;-59
2021/08/20 07:50:10;;;;;;;5.20;4.80;;;20.90;99.90;;;;;;5030572;28;20215;-59
2021/08/20 07:52:35;;;;;;;4.93;4.53;;;20.80;99.90;;;;;;5029706;28;20512;-59
2021/08/20 07:55:01;;;;;;;4.63;4.23;;;20.90;99.90;;;;;;5030700;28;20225;-58
2021/08/20 07:57:26;;;;;;;5.40;4.90;;;20.90;1.00;;;;;;5028921;28;20707;-58
2021/08/20 07:59:52;;;;;;;4.87;4.57;;;20.80;1.00;;;;;;5030190;28;20298;-59
2021/08/20 08:02:17;;;;;;;6.40;5.13;;;20.70;99.90;;;;;;5030175;28;20203;-59
2021/08/20 08:04:43;;;;;;;5.00;4.60;;;20.60;1.00;;;;;;5031112;28;20208;-59
2021/08/20 08:07:09;;;;;;;5.17;4.70;;;20.60;1.00;;;;;;5033576;28;20179;-59
2021/08/20 08:09:34;;;;;;;4.53;4.23;;;20.60;1.00;;;;;;5034793;28;20220;-60
2021/08/20 08:12:00;;;;;;;4.30;4.00;;;20.60;1.00;;;;;;5034508;28;20202;-60
2021/08/20 08:14:25;;;;;;;4.30;4.00;;;20.50;1.00;;;;;;5034318;28;20187;-60
2021/08/20 08:16:51;;;;;;;4.20;3.90;;;20.40;1.00;;;;;;5034492;28;20182;-60
2021/08/20 08:19:16;;;;;;;4.80;4.40;;;20.40;1.00;;;;;;5033937;28;20189;-60
2021/08/20 08:21:44;;;;;;;4.33;4.03;;;20.40;1.00;;;;;;5033496;28;20556;-60
2021/08/20 08:24:10;;;;;;;5.47;5.07;;;20.50;1.00;;;;;;5034191;28;20677;-53
2021/08/20 08:26:35;;;;;;;4.80;4.50;;;20.50;1.00;;;;;;5033331;28;20430;-59
2021/08/20 08:29:01;;;;;;;4.90;4.50;;;20.40;1.00;;;;;;5032735;28;20206;-60
2021/08/20 08:31:26;;;;;;;5.10;4.70;;;20.30;1.00;;;;;;5032837;28;20202;-60
2021/08/20 08:33:52;;;;;;;5.17;4.67;;;20.40;1.00;;;;;;5033838;28;20186;-59
2021/08/20 08:36:19;;;;;;;5.13;4.73;;;20.50;1.00;;;;;;5033922;28;20178;-59
2021/08/20 08:38:44;;;;;;;4.90;4.40;;;20.60;1.00;;;;;;5033700;28;20171;-59
2021/08/20 08:41:10;;;;;;;5.60;5.10;;;20.50;1.00;;;;;;5034050;28;20492;-59
2021/08/20 08:43:36;;;;;;;5.20;4.82;;;20.60;1.00;;;;;;5031608;28;20185;-59
2021/08/20 08:46:09;;;;;;;5.00;4.60;;;20.80;1.00;;;;;;5032116;28;20183;-59
2021/08/20 08:48:39;;;;;;;5.50;5.10;;;20.90;1.00;;;;;;5032153;28;20421;-59
2021/08/20 08:51:07;;;;;;;4.83;4.43;;;20.90;1.00;;;;;;5027014;28;20428;-59
2021/08/20 08:53:33;;;;;;;5.67;5.20;;;21.10;1.00;;;;;;5031726;28;20912;-61
2021/08/20 08:55:58;;;;;;;6.90;5.13;;;21.40;1.00;;;;;;5032048;28;20425;-60
2021/08/20 08:58:24;;;;;;;5.23;4.83;;;21.50;1.00;;;;;;5031679;28;20172;-58
2021/08/20 09:00:49;;;;;;;5.43;5.03;;;21.80;99.90;;;;;;5031858;28;20235;-59
2021/08/20 09:03:41;;;;;;;5.60;5.20;;;22.10;25.00;;;;;;5032062;28;20806;-60
2021/08/20 09:06:07;;;;;;;5.57;5.17;;;22.30;1.00;;;;;;5031105;28;20664;-60
2021/08/20 09:08:32;;;;;;;5.13;4.80;;;22.50;1.00;;;;;;5031518;28;20421;-59
2021/08/20 09:11:01;;;;;;;6.10;5.60;;;22.40;1.00;;;;;;5031828;28;20242;-60
2021/08/20 09:13:29;;;;;;;5.70;5.30;;;22.70;99.90;;;;;;5031663;28;20182;-59
2021/08/20 09:16:08;;;;;;;6.57;5.97;;;22.90;1.00;;;;;;5031629;28;20532;-59
2021/08/20 09:18:34;;;;;;;6.70;6.20;;;22.90;1.00;;;;;;5031012;28;20428;-59
2021/08/20 09:20:59;;;;;;;6.20;5.80;;;23.20;1.00;;;;;;5031563;28;20417;-60
2021/08/20 09:23:27;;;;;;;6.37;5.97;;;23.50;99.90;;;;;;5031040;28;20292;-60
2021/08/20 09:25:54;;;;;;;5.83;5.43;;;23.80;1.00;;;;;;5031644;28;20186;-60
2021/08/20 09:28:34;;;;;;;6.17;5.77;;;24.00;99.90;;;;;;5033797;28;20508;-59
2021/08/20 09:31:01;;;;;;;6.50;6.10;;;24.10;99.90;;;;;;5029882;28;20428;-60
2021/08/20 09:33:28;;;;;;;6.33;5.87;;;24.30;1.00;;;;;;5032237;28;20758;-60
2021/08/20 09:36:00;;;;;;;6.97;6.47;;;23.90;99.90;;;;;;5028117;28;20967;-58
2021/08/20 09:38:27;;;;;;;6.43;6.00;;;23.90;1.00;;;;;;5025523;28;20409;-61
2021/08/20 09:41:05;;;;;;;6.63;6.03;;;23.60;99.90;;;;;;5036166;28;20448;-59
2021/08/20 09:43:33;;;;;;;5.87;5.47;;;23.50;1.00;;;;;;5038243;28;20419;-60
2021/08/20 09:46:04;;;;;;;5.70;5.40;;;23.60;1.00;;;;;;5036079;28;20420;-59
2021/08/20 09:49:00;;;;;;;5.70;5.30;;;23.70;1.00;;;;;;5022585;28;20461;-60
2021/08/20 09:51:54;;;;;;;5.80;5.40;;;23.80;99.90;;;;;;5021610;28;20529;-59
2021/08/20 09:54:23;;;;;;;5.00;4.70;;;23.70;99.90;;;;;;5032030;28;20427;-60
2021/08/20 09:56:50;;;;;;;6.27;5.77;;;23.70;99.90;;;;;;5021796;28;20420;-60
2021/08/20 09:59:16;;;;;;;5.30;5.00;;;23.60;1.00;;;;;;5023948;28;20435;-59
2021/08/20 10:01:46;;;;;;;5.40;5.10;;;23.60;1.00;;;;;;5022784;28;20579;-60
2021/08/20 10:04:15;;;;;;;5.38;5.00;;;23.70;1.00;;;;;;5024262;28;20438;-55
2021/08/20 10:06:46;;;;;;;4.70;4.40;;;23.70;1.00;;;;;;5022384;28;20258;-60
2021/08/20 10:09:14;;;;;;;5.30;4.90;;;23.60;1.00;;;;;;5028274;28;20518;-60
2021/08/20 10:11:42;;;;;;;5.27;4.90;;;23.50;1.00;;;;;;5022979;28;20877;-60
2021/08/20 10:14:09;;;;;;;5.30;5.00;;;23.60;1.00;;;;;;5025970;28;20452;-59
2021/08/20 10:16:36;;;;;;;5.50;5.20;;;23.60;1.00;;;;;;5027027;28;20438;-60
2021/08/20 10:19:04;;;;;;;5.23;4.93;;;23.70;1.00;;;;;;5031207;28;20425;-60
2021/08/20 10:21:31;;;;;;;5.07;4.77;;;24.00;99.90;;;;;;5036394;28;20769;-60
2021/08/20 10:23:58;;;;;;;5.40;5.00;;;24.00;99.90;;;;;;5031799;28;20429;-60
2021/08/20 10:26:24;;;;;;;5.90;5.50;;;24.10;99.90;;;;;;5021443;28;20449;-60
2021/08/20 10:28:50;;;;;;;5.60;5.20;;;23.80;99.90;;;;;;5027391;28;20428;-60
2021/08/20 10:31:18;;;;;;;5.20;4.90;;;23.80;99.90;;;;;;5037858;28;20467;-59
2021/08/20 10:33:44;;;;;;;5.40;5.10;;;23.60;99.90;;;;;;5025332;28;20445;-59
2021/08/20 10:36:09;;;;;;;5.33;5.03;;;23.50;99.90;;;;;;5025551;28;20441;-59
2021/08/20 10:38:44;;;;;;;5.10;4.80;;;23.30;99.90;;;;;;5025153;28;20266;-60
2021/08/20 10:41:09;;;;;;;5.57;5.27;;;23.00;99.90;;;;;;5030179;28;20218;-55
2021/08/20 10:43:54;;;;;;;5.57;5.17;;;22.80;1.00;;;;;;5021604;28;20502;-59
2021/08/20 10:46:36;;;;;;;6.50;6.10;;;22.70;1.00;;;;;;5034462;28;20589;-60
2021/08/20 10:49:10;;;;;;;5.20;4.80;;;22.70;1.00;;;;;;5041076;28;20452;-61
2021/08/20 10:51:51;;;;;;;5.83;5.53;;;22.70;1.00;;;;;;5033608;28;20464;-58
2021/08/20 10:54:31;;;;;;;5.70;5.30;;;22.60;1.00;;;;;;5030502;28;20435;-60
2021/08/20 10:57:49;;;;;;;5.23;4.93;;;22.40;1.00;;;;;;5038353;28;20431;-58
2021/08/20 11:00:18;;;;;;;5.47;5.13;;;22.40;1.00;;;;;;5036164;28;20465;-60
2021/08/20 11:02:51;;;;;;;5.43;5.03;;;22.40;66.50;;;;;;5031480;28;20444;-60
2021/08/20 11:05:18;;;;;;;5.93;5.60;;;22.30;99.90;;;;;;5041382;28;20558;-60
2021/08/20 11:07:45;;;;;;;5.17;4.87;;;22.50;99.90;;;;;;5033701;28;20418;-60
2021/08/20 11:10:11;;;;;;;5.87;5.47;;;22.80;10.90;;;;;;5032799;28;20442;-59
2021/08/20 11:12:49;;;;;;;5.87;5.40;;;23.30;1.00;;;;;;5036103;28;20963;-59
2021/08/20 11:15:17;;;;;;;5.80;5.40;;;23.80;1.00;;;;;;5035363;28;20448;-55
2021/08/20 11:17:57;;;;;;;5.10;4.80;;;24.20;99.90;;;;;;5032825;28;20516;-59
2021/08/20 11:20:28;;;;;;;5.13;4.83;;;24.30;99.90;;;;;;5041670;28;20423;-58
2021/08/20 11:23:12;;;;;;;5.70;5.30;;;24.30;99.90;;;;;;5032471;28;20427;-62
2021/08/20 11:25:48;;;;;;;6.00;5.60;;;24.20;81.20;;;;;;5032322;28;20489;-61
2021/08/20 11:28:38;;;;;;;5.80;5.40;;;24.10;99.90;;;;;;5043190;28;20447;-58
2021/08/20 11:31:06;;;;;;;5.47;5.07;;;24.00;99.90;;;;;;5019885;28;20451;-60
2021/08/20 11:33:33;;;;;;;4.70;4.40;;;23.90;99.90;;;;;;5031188;28;21111;-61
2021/08/20 11:36:05;;;;;;;5.90;5.60;;;24.20;99.90;;;;;;5029693;28;20444;-61
2021/08/20 11:38:35;;;;;;;5.00;4.73;;;24.30;18.60;;;;;;5030077;28;20501;-60
2021/08/20 11:41:05;;;;;;;5.47;5.17;;;24.40;1.00;;;;;;5028768;28;20494;-60
2021/08/20 11:43:33;;;;;;;5.77;5.37;;;24.70;1.00;;;;;;5029337;28;20951;-62
2021/08/20 11:46:01;;;;;;;5.17;4.87;;;24.90;1.00;;;;;;5028464;28;20465;-60
2021/08/20 11:48:29;;;;;;;5.57;5.17;;;24.80;1.00;;;;;;5029719;28;20479;-62
2021/08/20 11:50:54;;;;;;;5.70;5.20;;;25.10;1.00;;;;;;5028175;28;21222;-61
2021/08/20 11:53:22;;;;;;;6.23;5.67;;;26.00;1.00;;;;;;5026675;28;20555;-61
2021/08/20 11:55:47;;;;;;;4.87;4.60;;;26.60;1.00;;;;;;5028896;28;20246;-61
2021/08/20 11:58:27;;;;;;;5.50;5.10;;;27.50;99.90;;;;;;5027088;28;20443;-61
2021/08/20 12:00:52;;;;;;;5.50;5.20;;;27.60;99.90;;;;;;5024323;28;20241;-61
2021/08/20 12:03:19;;;;;;;5.57;5.27;;;27.80;99.90;;;;;;5024351;28;20439;-61
2021/08/20 12:05:44;;;;;;;5.67;5.37;;;27.80;99.90;;;;;;5026603;28;20423;-60
2021/08/20 12:08:19;;;;;;;5.53;5.23;;;27.80;99.90;;;;;;5028055;28;20554;-61
2021/08/20 12:10:46;;;;;;;5.90;5.60;;;28.30;99.90;;;;;;5028871;28;20181;-61
2021/08/20 12:13:13;;;;;;;6.50;6.10;;;28.90;99.90;;;;;;5027731;28;20833;-61
2021/08/20 12:15:39;;;;;;;6.00;5.60;;;28.80;99.90;;;;;;5026354;28;20457;-62
2021/08/20 12:18:19;;;;;;;5.87;5.57;;;29.20;99.90;;;;;;5028440;28;20544;-62
2021/08/20 12:20:44;;;;;;;5.40;5.10;;;30.30;99.90;;;;;;5028137;28;20439;-62
2021/08/20 12:23:10;;;;;;;6.10;5.70;;;31.10;99.90;;;;;;5027977;28;20425;-60
2021/08/20 12:25:39;;;;;;;6.20;5.80;;;31.90;99.90;;;;;;5027533;28;20179;-61
2021/08/20 12:28:12;;;;;;;6.00;5.70;;;32.60;99.90;;;;;;5009253;28;20171;-62
2021/08/20 12:30:37;;;;;;;6.07;5.77;;;32.80;99.90;;;;;;5027954;28;20436;-61
2021/08/20 12:33:03;;;;;;;6.43;6.03;;;32.40;99.90;;;;;;5028390;28;20442;-61
2021/08/20 12:35:30;;;;;;;6.03;5.73;;;32.20;99.90;;;;;;5025794;28;20665;-61
2021/08/20 12:38:15;;;;;;;5.97;5.67;;;32.40;99.90;;;;;;5028432;28;20183;-61
2021/08/20 12:40:42;;;;;;;7.03;6.43;;;32.10;99.90;;;;;;5027502;28;20527;-63
2021/08/20 12:43:34;;;;;;;5.97;5.67;;;32.40;99.90;;;;;;5027645;28;20429;-62
2021/08/20 12:46:00;;;;;;;5.50;5.20;;;32.20;99.90;;;;;;5027716;28;20417;-61
2021/08/20 12:48:26;;;;;;;5.57;5.27;;;32.60;99.90;;;;;;5028330;28;20413;-62
2021/08/20 12:50:58;;;;;;;6.40;6.10;;;33.20;99.90;;;;;;5028492;28;20167;-61
2021/08/20 12:53:27;;;;;;;6.23;5.83;;;33.30;99.90;;;;;;5029681;28;20278;-62